createdAt,value
2022-09-07T00:00:57.074Z,62.64
2022-09-07T00:03:24.176Z,63.75
2022-09-07T00:05:51.933Z,63.50
2022-09-07T00:08:22.492Z,62.94
2022-09-07T00:10:56.099Z,62.78
2022-09-07T00:13:24.529Z,62.50
2022-09-07T00:15:51.280Z,63.42
2022-09-07T00:18:18.056Z,63.60
2022-09-07T00:20:44.745Z,63.90
2022-09-07T00:23:11.745Z,64.04
2022-09-07T00:25:39.743Z,63.99
2022-09-07T00:28:08.016Z,63.63
2022-09-07T00:30:40.293Z,64.42
2022-09-07T00:33:06.799Z,63.92
2022-09-07T00:35:33.346Z,63.07
2022-09-07T00:37:59.820Z,63.32
2022-09-07T00:40:26.470Z,64.13
2022-09-07T00:42:52.976Z,63.99
2022-09-07T00:45:21.415Z,64.95
2022-09-07T00:47:51.002Z,64.66
2022-09-07T00:50:38.104Z,63.84
2022-09-07T00:53:19.679Z,64.07
2022-09-07T00:55:49.325Z,64.99
2022-09-07T00:58:17.098Z,64.33
2022-09-07T01:00:46.291Z,64.45
2022-09-07T01:03:15.063Z,65.18
2022-09-07T01:05:46.454Z,65.47
2022-09-07T01:08:14.016Z,65.99
2022-09-07T01:10:40.782Z,66.70
2022-09-07T01:13:07.755Z,65.30
2022-09-07T01:15:57.968Z,66.37
2022-09-07T01:18:29.207Z,71.96
2022-09-07T01:21:13.675Z,75.38
2022-09-07T01:24:24.540Z,75.82
2022-09-07T01:27:18.923Z,78.65
2022-09-07T01:29:57.508Z,82.01
2022-09-07T01:32:55.062Z,82.94
2022-09-07T01:35:34.258Z,83.87
2022-09-07T01:38:27.558Z,84.40
2022-09-07T01:41:16.555Z,85.18
2022-09-07T01:43:47.377Z,85.57
2022-09-07T01:46:46.159Z,85.46
2022-09-07T01:49:22.668Z,85.38
2022-09-07T01:51:55.746Z,88.30
2022-09-07T01:54:38.188Z,87.52
2022-09-07T01:57:13.385Z,88.73
2022-09-07T01:59:45.426Z,85.92
2022-09-07T02:02:17.519Z,89.02
2022-09-07T02:04:57.146Z,87.76
2022-09-07T02:07:53.138Z,90.89
2022-09-07T02:10:27.500Z,89.43
2022-09-07T02:13:56.652Z,89.98
2022-09-07T02:16:25.827Z,90.48
2022-09-07T02:18:59.911Z,90.97
2022-09-07T02:21:33.737Z,90.30
2022-09-07T02:24:18.101Z,92.01
2022-09-07T02:26:49.449Z,92.55
2022-09-07T02:29:15.976Z,93.63
2022-09-07T02:31:42.539Z,92.37
2022-09-07T02:34:09.189Z,92.55
2022-09-07T02:36:44.401Z,91.87
2022-09-07T02:39:10.952Z,92.65
2022-09-07T02:41:39.538Z,93.10
2022-09-07T02:44:14.170Z,92.04
2022-09-07T02:46:57.449Z,93.77
2022-09-07T02:49:39.384Z,92.56
2022-09-07T02:52:30.413Z,91.87
2022-09-07T02:55:28.127Z,92.79
2022-09-07T02:58:35.214Z,93.11
2022-09-07T03:01:10.949Z,94.72
2022-09-07T03:04:09.750Z,93.35
2022-09-07T03:06:43.724Z,95.24
2022-09-07T03:09:16.418Z,96.38
2022-09-07T03:11:43.106Z,95.77
2022-09-07T03:14:17.444Z,97.23
2022-09-07T03:16:44.458Z,96.45
2022-09-07T03:19:11.050Z,96.94
2022-09-07T03:21:37.565Z,96.97
2022-09-07T03:24:04.461Z,98.08
2022-09-07T03:26:30.979Z,100.00
2022-09-07T03:28:57.511Z,100.00
2022-09-07T03:31:24.148Z,100.00
2022-09-07T03:33:50.696Z,100.00
2022-09-07T03:36:17.257Z,100.00
2022-09-07T03:38:44.169Z,100.00
2022-09-07T03:41:10.722Z,100.00
2022-09-07T03:43:37.197Z,100.00
2022-09-07T03:46:06.139Z,100.00
2022-09-07T03:48:34.763Z,100.00
2022-09-07T03:51:04.166Z,100.00
2022-09-07T03:53:39.122Z,100.00
2022-09-07T03:56:09.106Z,100.00
2022-09-07T03:58:36.625Z,100.00
2022-09-07T04:01:08.845Z,100.00
2022-09-07T04:03:35.838Z,100.00
2022-09-07T04:06:03.511Z,100.00
2022-09-07T04:08:32.382Z,100.00
2022-09-07T04:11:01.017Z,100.00
2022-09-07T04:13:29.078Z,100.00
2022-09-07T04:15:56.247Z,100.00
2022-09-07T04:18:23.649Z,100.00
2022-09-07T04:20:51.070Z,100.00
2022-09-07T04:23:20.794Z,100.00
2022-09-07T04:25:52.171Z,99.05
2022-09-07T04:28:20.867Z,99.41
2022-09-07T04:30:47.840Z,100.00
2022-09-07T04:33:15.428Z,99.72
2022-09-07T04:35:43.350Z,99.87
2022-09-07T04:38:15.221Z,99.27
2022-09-07T04:40:42.068Z,99.19
2022-09-07T04:43:09.582Z,100.00
2022-09-07T04:45:37.226Z,100.00
2022-09-07T04:48:04.594Z,100.00
2022-09-07T04:50:31.730Z,100.00
2022-09-07T04:52:58.210Z,100.00
2022-09-07T04:55:24.765Z,100.00
2022-09-07T04:57:51.316Z,100.00
2022-09-07T05:00:18.105Z,100.00
2022-09-07T05:02:44.728Z,100.00
2022-09-07T05:05:11.323Z,100.00
2022-09-07T05:07:37.874Z,100.00
2022-09-07T05:10:04.790Z,100.00
2022-09-07T05:12:31.534Z,100.00
2022-09-07T05:14:58.045Z,100.00
2022-09-07T05:17:24.700Z,100.00
2022-09-07T05:19:51.235Z,100.00
2022-09-07T05:22:17.869Z,100.00
2022-09-07T05:24:44.556Z,100.00
2022-09-07T05:27:11.171Z,100.00
2022-09-07T05:32:24.274Z,100.00
2022-09-07T05:34:52.882Z,100.00
2022-09-07T05:37:19.949Z,100.00
2022-09-07T05:39:46.848Z,100.00
2022-09-07T05:42:13.736Z,100.00
2022-09-07T05:47:09.659Z,100.00
2022-09-07T05:49:36.230Z,100.00
2022-09-07T05:52:03.034Z,100.00
2022-09-07T05:54:29.575Z,100.00
2022-09-07T05:56:56.076Z,100.00
2022-09-07T05:59:22.621Z,100.00
2022-09-07T06:01:49.237Z,100.00
2022-09-07T06:04:15.844Z,100.00
2022-09-07T06:06:47.805Z,100.00
2022-09-07T06:09:29.852Z,100.00
2022-09-07T06:11:57.212Z,100.00
2022-09-07T06:14:23.786Z,100.00
2022-09-07T06:16:50.655Z,100.00
2022-09-07T06:19:17.172Z,100.00
2022-09-07T06:21:43.691Z,100.00
2022-09-07T06:24:10.247Z,100.00
2022-09-07T06:26:36.779Z,100.00
2022-09-07T06:29:03.830Z,100.00
2022-09-07T06:31:30.719Z,100.00
2022-09-07T06:33:57.444Z,100.00
2022-09-07T06:36:27.263Z,100.00
2022-09-07T06:38:58.848Z,100.00
2022-09-07T06:44:16.578Z,100.00
2022-09-07T06:49:29.595Z,100.00
2022-09-07T06:51:56.174Z,100.00
2022-09-07T06:57:09.860Z,100.00
2022-09-07T06:59:37.326Z,99.27
2022-09-07T07:02:15.417Z,97.67
2022-09-07T07:04:44.179Z,97.80
2022-09-07T07:07:12.407Z,99.16
2022-09-07T07:09:39.618Z,99.61
2022-09-07T07:12:06.298Z,98.72
2022-09-07T07:14:34.653Z,98.90
2022-09-07T07:17:02.808Z,97.91
2022-09-07T07:19:29.482Z,96.52
2022-09-07T07:24:42.668Z,94.95
2022-09-07T07:27:09.149Z,94.97
2022-09-07T07:29:35.696Z,95.08
2022-09-07T07:32:02.455Z,94.50
2022-09-07T07:34:29.335Z,94.46
2022-09-07T07:36:55.840Z,94.01
2022-09-07T07:42:09.114Z,92.31
2022-09-07T07:44:35.652Z,94.00
2022-09-07T07:47:02.696Z,93.40
2022-09-07T07:49:29.230Z,92.55
2022-09-07T07:54:43.274Z,89.39
2022-09-07T07:57:10.323Z,87.85
2022-09-07T07:59:37.027Z,87.53
2022-09-07T08:02:09.071Z,86.02
2022-09-07T08:04:36.020Z,86.53
2022-09-07T08:07:09.259Z,85.28
2022-09-07T08:09:44.247Z,86.69
2022-09-07T08:12:19.341Z,84.18
2022-09-07T08:14:47.957Z,85.22
2022-09-07T08:17:17.538Z,85.30
2022-09-07T08:19:44.937Z,84.81
2022-09-07T08:22:12.496Z,85.95
2022-09-07T08:24:39.210Z,85.50
2022-09-07T08:27:05.755Z,81.97
2022-09-07T08:29:34.580Z,83.11
2022-09-07T08:32:02.600Z,83.92
2022-09-07T08:34:29.082Z,80.39
2022-09-07T08:36:55.595Z,77.50
2022-09-07T08:39:22.032Z,80.80
2022-09-07T08:42:09.760Z,79.59
2022-09-07T08:44:51.017Z,82.01
2022-09-07T08:47:32.100Z,81.62
2022-09-07T08:50:13.583Z,82.32
2022-09-07T08:53:03.110Z,79.77
2022-09-07T08:55:38.709Z,77.40
2022-09-07T08:58:48.345Z,79.19
2022-09-07T09:01:36.521Z,78.51
2022-09-07T09:04:21.301Z,80.91
2022-09-07T09:07:10.361Z,77.39
2022-09-07T09:09:49.079Z,80.47
2022-09-07T09:12:36.827Z,80.50
2022-09-07T09:15:17.856Z,77.12
2022-09-07T09:18:08.138Z,78.00
2022-09-07T09:20:48.391Z,77.35
2022-09-07T09:23:16.287Z,77.93
2022-09-07T09:25:50.992Z,76.54
2022-09-07T09:28:17.874Z,78.77
2022-09-07T09:30:44.282Z,78.33
2022-09-07T09:33:21.673Z,78.24
2022-09-07T09:35:50.849Z,75.39
2022-09-07T09:38:29.484Z,75.14
2022-09-07T09:40:59.609Z,75.23
2022-09-07T09:43:32.381Z,76.08
2022-09-07T09:46:15.893Z,76.93
2022-09-07T09:48:42.737Z,76.78
2022-09-07T09:54:07.661Z,75.30
2022-09-07T09:56:43.141Z,75.42
2022-09-07T10:05:35.900Z,76.79
2022-09-07T10:08:14.701Z,76.92
2022-09-07T10:11:03.902Z,77.05
2022-09-07T10:13:42.532Z,76.04
2022-09-07T10:16:10.562Z,75.13
2022-09-07T10:18:59.429Z,78.04
2022-09-07T10:21:32.258Z,76.23
2022-09-07T10:23:59.918Z,76.28
2022-09-07T10:26:28.434Z,75.56
2022-09-07T10:29:28.696Z,72.41
2022-09-07T10:32:07.318Z,72.82
2022-09-07T10:35:01.426Z,72.71
2022-09-07T10:37:31.441Z,71.82
2022-09-07T10:40:25.049Z,72.61
2022-09-07T10:45:59.654Z,75.57
2022-09-07T10:48:54.462Z,71.77
2022-09-07T10:51:37.732Z,72.60
2022-09-07T10:54:52.272Z,72.45
2022-09-07T10:57:37.116Z,69.11
2022-09-07T11:00:14.515Z,71.79
2022-09-07T11:03:27.369Z,69.34
2022-09-07T11:06:22.032Z,69.20
2022-09-07T11:12:20.769Z,65.04
2022-09-07T11:15:12.814Z,65.60
2022-09-07T11:17:53.002Z,64.89
2022-09-07T11:20:26.227Z,67.37
2022-09-07T11:23:04.466Z,65.63
2022-09-07T11:25:40.975Z,64.59
2022-09-07T11:28:24.195Z,64.10
2022-09-07T11:31:00.024Z,60.38
2022-09-07T11:33:34.339Z,64.87
2022-09-07T11:36:16.286Z,63.78
2022-09-07T11:38:52.144Z,62.29
2022-09-07T11:41:31.698Z,62.56
2022-09-07T11:44:04.424Z,65.25
2022-09-07T11:46:42.254Z,64.21
2022-09-07T11:49:20.372Z,64.28
2022-09-07T11:51:53.923Z,64.44
2022-09-07T11:54:48.725Z,62.59
2022-09-07T11:57:15.633Z,65.68
2022-09-07T12:00:10.945Z,64.85
2022-09-07T12:03:06.752Z,65.10
2022-09-07T12:05:45.115Z,62.00
2022-09-07T12:08:36.506Z,65.24
2022-09-07T12:11:21.348Z,64.83
2022-09-07T12:14:18.872Z,63.93
2022-09-07T12:17:08.306Z,64.85
2022-09-07T12:19:35.231Z,63.66
2022-09-07T12:22:01.929Z,67.11
2022-09-07T12:24:42.239Z,66.32
2022-09-07T12:27:22.066Z,66.88
2022-09-07T12:29:57.852Z,64.35
2022-09-07T12:32:58.182Z,64.10
2022-09-07T12:35:28.620Z,61.49
2022-09-07T12:38:03.167Z,65.05
2022-09-07T12:40:29.713Z,61.81
2022-09-07T12:43:14.479Z,57.24
2022-09-07T12:45:41.560Z,60.11
2022-09-07T12:48:16.789Z,61.23
2022-09-07T12:51:02.298Z,60.44
2022-09-07T12:53:56.972Z,60.58
2022-09-07T12:56:43.176Z,59.00
2022-09-07T12:59:29.498Z,59.99
2022-09-07T13:02:33.039Z,55.80
2022-09-07T13:05:34.037Z,56.88
2022-09-07T13:08:16.042Z,58.82
2022-09-07T13:10:43.642Z,57.49
2022-09-07T13:13:16.063Z,58.21
2022-09-07T13:15:51.626Z,57.76
2022-09-07T13:18:27.297Z,57.98
2022-09-07T13:21:08.831Z,59.00
2022-09-07T13:23:37.892Z,56.21
2022-09-07T13:26:06.913Z,58.40
2022-09-07T13:28:40.333Z,55.96
2022-09-07T13:31:19.383Z,58.33
2022-09-07T13:33:48.682Z,56.15
2022-09-07T13:36:25.738Z,58.57
2022-09-07T13:38:53.795Z,56.63
2022-09-07T13:41:34.753Z,53.95
2022-09-07T13:44:03.789Z,54.52
2022-09-07T13:46:47.146Z,55.00
2022-09-07T13:49:25.553Z,55.23
2022-09-07T13:52:04.177Z,56.25
2022-09-07T13:54:37.059Z,54.80
2022-09-07T13:57:25.766Z,54.57
2022-09-07T13:59:52.595Z,56.89
2022-09-07T14:02:35.438Z,53.64
2022-09-07T14:05:02.967Z,52.43
2022-09-07T14:07:31.415Z,53.30
2022-09-07T14:10:28.198Z,53.82
2022-09-07T14:13:15.019Z,56.73
2022-09-07T14:15:44.461Z,54.21
2022-09-07T14:18:12.249Z,54.33
2022-09-07T14:20:46.144Z,52.51
2022-09-07T14:23:19.264Z,52.07
2022-09-07T14:28:37.184Z,52.25
2022-09-07T14:31:05.821Z,55.09
2022-09-07T14:33:32.858Z,53.83
2022-09-07T14:35:59.558Z,53.13
2022-09-07T14:41:19.402Z,51.79
2022-09-07T14:43:56.767Z,54.12
2022-09-07T14:46:27.612Z,51.95
2022-09-07T14:49:00.176Z,52.68
2022-09-07T14:51:36.095Z,51.33
2022-09-07T14:54:07.738Z,49.79
2022-09-07T14:56:41.904Z,53.12
2022-09-07T14:59:34.836Z,54.24
2022-09-07T15:02:19.843Z,50.08
2022-09-07T15:04:47.405Z,52.54
2022-09-07T15:07:36.665Z,51.75
2022-09-07T15:10:23.254Z,50.61
2022-09-07T15:13:00.122Z,51.01
2022-09-07T15:15:41.119Z,51.22
2022-09-07T15:18:42.820Z,52.79
2022-09-07T15:21:09.241Z,52.00
2022-09-07T15:23:35.654Z,50.48
2022-09-07T15:26:02.386Z,51.78
2022-09-07T15:34:20.542Z,53.08
2022-09-07T15:36:52.483Z,53.69
2022-09-07T15:39:25.280Z,53.65
2022-09-07T15:41:52.754Z,53.06
2022-09-07T15:44:22.985Z,55.50
2022-09-07T15:49:40.119Z,56.29
2022-09-07T15:52:08.572Z,56.44
2022-09-07T15:54:37.078Z,56.08
2022-09-07T15:59:52.262Z,55.59
2022-09-07T16:05:07.780Z,55.60
2022-09-07T16:10:21.314Z,56.20
2022-09-07T16:13:10.511Z,56.91
2022-09-07T16:15:34.663Z,54.93
2022-09-07T16:18:02.212Z,56.14
2022-09-07T16:20:31.921Z,56.54
2022-09-07T16:23:15.507Z,56.40
2022-09-07T16:25:43.371Z,56.27
2022-09-07T16:28:10.898Z,56.13
2022-09-07T16:30:40.662Z,56.53
2022-09-07T16:33:07.521Z,58.97
2022-09-07T16:35:34.267Z,58.02
2022-09-07T16:40:50.090Z,57.10
2022-09-07T16:43:17.001Z,55.89
2022-09-07T16:48:31.406Z,57.10
2022-09-07T16:51:01.906Z,57.03
2022-09-07T16:53:31.801Z,57.88
2022-09-07T16:56:06.972Z,58.36
2022-09-07T16:58:36.725Z,58.36
2022-09-07T17:01:07.819Z,58.78
2022-09-07T17:03:35.548Z,58.01
2022-09-07T17:06:03.532Z,57.65
2022-09-07T17:08:30.093Z,57.54
2022-09-07T17:11:10.594Z,57.73
2022-09-07T17:13:38.813Z,58.21
2022-09-07T17:16:33.051Z,57.98
2022-09-07T17:21:51.739Z,58.14
2022-09-07T17:24:19.678Z,59.13
2022-09-07T17:26:46.357Z,58.92
2022-09-07T17:29:13.067Z,58.95
2022-09-07T17:34:26.723Z,57.40
2022-09-07T17:36:53.278Z,58.41
2022-09-07T17:39:20.012Z,58.12
2022-09-07T17:41:52.604Z,58.41
2022-09-07T17:44:19.382Z,59.23
2022-09-07T17:46:46.198Z,60.25
2022-09-07T17:49:14.491Z,60.01
2022-09-07T17:51:41.357Z,60.28
2022-09-07T17:54:11.569Z,60.45
2022-09-07T17:56:40.108Z,61.20
2022-09-07T18:01:56.549Z,61.89
2022-09-07T18:04:23.799Z,62.56
2022-09-07T18:06:51.019Z,62.56
2022-09-07T18:09:19.494Z,63.25
2022-09-07T18:11:47.688Z,63.57
2022-09-07T18:14:15.456Z,63.84
2022-09-07T18:16:43.240Z,63.67
2022-09-07T18:19:11.658Z,63.95
2022-09-07T18:21:41.026Z,64.08
2022-09-07T18:24:13.571Z,64.27
2022-09-07T18:26:40.951Z,65.45
2022-09-07T18:29:25.833Z,66.07
2022-09-07T18:31:54.215Z,66.28
2022-09-07T18:34:20.869Z,66.11
2022-09-07T18:36:47.481Z,65.97
2022-09-07T18:39:14.051Z,65.80
2022-09-07T18:41:40.845Z,66.28
2022-09-07T18:45:27.342Z,67.90
2022-09-07T18:46:54.183Z,69.30
2022-09-07T18:49:20.830Z,69.45
2022-09-07T18:54:33.742Z,69.00
2022-09-07T18:57:00.427Z,68.35
2022-09-07T18:59:26.936Z,68.14
2022-09-07T19:01:54.119Z,67.73
2022-09-07T19:04:21.597Z,68.77
2022-09-07T19:06:48.102Z,69.35
2022-09-07T19:09:14.587Z,69.36
2022-09-07T19:11:42.283Z,69.74
2022-09-07T19:14:09.089Z,70.41
2022-09-07T19:16:36.731Z,71.46
2022-09-07T19:19:06.402Z,71.77
2022-09-07T19:21:35.734Z,72.23
2022-09-07T19:24:06.465Z,72.48
2022-09-07T19:26:35.737Z,72.54
2022-09-07T19:29:04.315Z,72.01
2022-09-07T19:31:31.611Z,72.81
2022-09-07T19:33:59.903Z,73.13
2022-09-07T19:36:30.501Z,74.25
2022-09-07T19:38:57.193Z,74.02
2022-09-07T19:41:23.904Z,74.94
2022-09-07T19:43:50.646Z,75.53
2022-09-07T19:46:22.728Z,75.98
2022-09-07T19:48:51.285Z,76.30
2022-09-07T19:51:18.017Z,76.29
2022-09-07T19:53:46.689Z,76.33
2022-09-07T19:56:15.914Z,76.45
2022-09-07T19:58:43.870Z,77.24
2022-09-07T20:01:17.120Z,77.05
2022-09-07T20:03:46.619Z,77.62
2022-09-07T20:06:14.721Z,79.21
2022-09-07T20:08:42.626Z,79.31
2022-09-07T20:11:11.872Z,79.17
2022-09-07T20:13:39.375Z,78.62
2022-09-07T20:16:11.310Z,77.88
2022-09-07T20:18:38.301Z,77.37
2022-09-07T20:21:06.618Z,77.10
2022-09-07T20:23:34.857Z,77.13
2022-09-07T20:26:04.195Z,77.12
2022-09-07T20:28:31.170Z,76.78
2022-09-07T20:30:57.853Z,76.96
2022-09-07T20:33:24.667Z,78.24
2022-09-07T20:35:51.572Z,77.82
2022-09-07T20:38:21.003Z,77.26
2022-09-07T20:40:54.538Z,76.40
2022-09-07T20:43:21.663Z,76.78
2022-09-07T20:45:48.269Z,77.62
2022-09-07T20:48:15.234Z,78.74
2022-09-07T20:50:42.009Z,79.59
2022-09-07T20:53:08.797Z,80.57
2022-09-07T20:55:35.953Z,81.51
2022-09-07T20:58:03.058Z,80.88
2022-09-07T21:00:29.585Z,79.44
2022-09-07T21:02:56.583Z,79.02
2022-09-07T21:05:23.029Z,79.38
2022-09-07T21:07:49.472Z,79.79
2022-09-07T21:10:15.970Z,80.96
2022-09-07T21:12:42.498Z,81.19
2022-09-07T21:15:09.798Z,80.79
2022-09-07T21:17:36.265Z,80.95
2022-09-07T21:20:03.105Z,81.44
2022-09-07T21:22:30.800Z,82.05
2022-09-07T21:24:57.270Z,81.70
2022-09-07T21:27:24.216Z,81.47
2022-09-07T21:29:51.081Z,81.02
2022-09-07T21:32:17.559Z,81.68
2022-09-07T21:34:43.986Z,80.83
2022-09-07T21:37:10.407Z,79.94
2022-09-07T21:39:37.043Z,80.48
2022-09-07T21:42:04.384Z,81.38
2022-09-07T21:44:30.801Z,81.72
2022-09-07T21:46:57.347Z,83.08
2022-09-07T21:49:23.861Z,83.46
2022-09-07T21:51:50.252Z,83.32
2022-09-07T21:54:16.707Z,82.92
2022-09-07T21:56:46.499Z,82.98
2022-09-07T21:59:13.875Z,83.43
2022-09-07T22:01:40.812Z,86.13
2022-09-07T22:04:07.443Z,86.57
2022-09-07T22:06:34.717Z,85.69
2022-09-07T22:09:02.214Z,85.65
2022-09-07T22:11:29.480Z,85.21
2022-09-07T22:13:58.090Z,84.57
2022-09-07T22:16:25.181Z,84.45
2022-09-07T22:18:52.292Z,85.88
2022-09-07T22:21:21.883Z,85.84
2022-09-07T22:23:51.173Z,85.14
2022-09-07T22:26:20.572Z,84.70
2022-09-07T22:28:46.925Z,84.23
2022-09-07T22:31:22.468Z,84.63
2022-09-07T22:33:50.976Z,84.70
2022-09-07T22:36:20.546Z,85.58
2022-09-07T22:38:49.634Z,85.18
2022-09-07T22:41:19.118Z,85.39
2022-09-07T22:43:46.068Z,86.00
2022-09-07T22:46:13.800Z,86.73
2022-09-07T22:48:41.317Z,86.71
2022-09-07T22:51:08.774Z,85.82
2022-09-07T22:53:37.144Z,84.88
2022-09-07T22:56:18.491Z,84.30
2022-09-07T22:58:47.217Z,84.81
2022-09-07T23:01:13.818Z,85.61
2022-09-07T23:03:40.356Z,86.50
2022-09-07T23:06:06.966Z,86.29
2022-09-07T23:08:33.384Z,86.35
2022-09-07T23:11:05.103Z,86.04
2022-09-07T23:13:32.874Z,85.31
2022-09-07T23:16:04.605Z,85.72
2022-09-07T23:18:31.540Z,85.95
2022-09-07T23:21:02.258Z,86.48
2022-09-07T23:23:29.480Z,86.29
2022-09-07T23:25:55.966Z,86.58
2022-09-07T23:28:22.521Z,86.71
2022-09-07T23:30:50.738Z,86.02
2022-09-07T23:33:17.690Z,86.18
2022-09-07T23:35:54.685Z,86.81
2022-09-07T23:38:21.522Z,85.97
2022-09-07T23:40:48.085Z,85.25
2022-09-07T23:43:14.649Z,85.23
2022-09-07T23:45:41.042Z,85.93
2022-09-07T23:48:07.555Z,86.11
2022-09-07T23:50:34.013Z,86.41
2022-09-07T23:53:00.666Z,87.00
2022-09-07T23:55:27.140Z,87.70
2022-09-07T23:57:53.569Z,86.49
